Relevés horaires St-Hubert (Belgique)


Relevés horaires à St-Hubert - Mardi 03 Mai 2022
Heure UTC1 Température [°C] Vent [km/h] Hum. [%] Pres.4 [hPa] Visi. [Km] Nébu. [octa] Préc.5 [mm] Cond.
2m. Res. Ros. Dir.2 Vit. Moy. Raf.3
23:00 7.8 6.6 4.4 NE 7.4 7.4 11.1 79 1019.2(0.4/3h) 15 0/8 -- --
22:00 8.9 8.3 2.6 NE 5.6 5.6 7.4 65 1018.9(0.6/3h) 45 0/8 -- --
21:00 9.7 9.2 2.0 NE 5.6 7.4 13.0 59 1018.6(0.9/3h) 45 0/8 -- --
20:00 11.3 11.1 1.8 NNE 5.6 5.6 7.4 52 1018(0.8/3h) 45 7/8 -- --
19:00 12.1 12 1.8 N 5.6 7.4 13.0 49 1017.5(0.6/3h) 40 8/8 -- --
18:00 13.5 13.2 2.0 N 7.4 11.1 16.7 46 1016.8(0.2/3h) 19 0/8 0/12h
--
17:00 14.6 14.5 2.4 N 7.4 9.3 14.8 44 1016.3(-0.2/3h) 24 0/8 -- --
16:00 15.1 14.8 2.7 N 9.3 11.1 14.8 43 1016.1(-0.6/3h) 22 0/8 -- --
15:00 15.3 15.1 3.3 NNO 9.3 9.3 16.7 45 1016.1(-0.9/3h) 19 8/8 -- --
14:00 15.4 15.4 4.2 N 5.6 7.4 14.8 47 1016.3(-0.9/3h) 22 0/8 -- --
13:00 15.0 15 4.4 N 7.4 7.4 14.8 49 1016.8(-0.7/3h) 21 7/8 -- --
12:00 14.7 14.6 4.0 NNE 7.4 9.3 16.7 49 1017.2(-0.2/3h) 27 5/8 0/6h
--
11:00 13.3 13 4.1 NNE 7.4 9.3 14.8 54 1017.8(0.3/3h) 19 0/8 -- --
10:00 12.5 11.7 3.6 N 9.3 9.3 16.7 55 1018.1(0.7/3h) 21 0/8 -- --
09:00 12.3 11.8 4.6 NNE 7.4 9.3 14.8 59 1017.9(0.8/3h) 22 0/8 -- --
08:00 10.5 9.7 4.6 N 7.4 7.4 13.0 67 1018.2(1.1/3h) 18 0/8 -- --
07:00 8.4 7.3 4.3 NE 7.4 7.4 9.3 75 1018.3(0.8/3h) 16 0/8 -- --
06:00 6.1 4.6 3.4 NNE 7.4 9.3 11.1 83 1018.5(0.3/3h) 11 0/8 0/12h
--
05:00 6.3 5.3 3.0 NE 5.6 9.3 11.1 79 1018.1(-0.3/3h) 12 8/8 -- --
04:00 6.5 5 3.0 NE 7.4 7.4 9.3 78 1018(-0.5/3h) 14 8/8 -- --
03:00 6.3 5.3 2.7 NE 5.6 9.3 11.1 78 1018.1(-0.7/3h) 15 8/8 -- --
02:00 6.5 5 2.6 NE 7.4 7.4 11.1 76 1018.3(-0.8/3h) 15 4/8 -- --
01:00 7.4 6.1 2.9 NNE 7.4 7.4 9.3 73 1018.3(-0.6/3h) 16 0/8 -- --
00:00 8.3 7.1 3.1 NE 7.4 7.4 13.0 70 1018.4(0.2/3h) 20 3/8 0/6h
0/24h
--

1 Coordinated Universal Time. Actuellement il est 09:00 locale et 08:00 UTC.

2 Le vent souffle depuis la direction indiquée vers la direction oposée.

3 Les rafales max. sont disponible 40 min après l'heure du relevé.

4 Pour les stations d'altitude (plus de 600m) le géopotentiel du niveau le plus proche de la pression obligatoire est indiqué.

5 Les stations disposant d'un diffuseur peuvent indiquer "trace". Cela signifie que des précipitations ont touchés le sol mais que la quantité est inférieure à 0.1 mm.

Récapitulatif de la journée
Température [°C] Vent [km/h] Ensoleillement4 [h] Precipitations totale5 [mm] Pression [Hpa]
Min1 Max.2 Moy.3 Max. Min Max.
6.0 15.8 8.3 16.7 0 h 0 min 0 1016.1 1019.2

1 Température minimale relevée entre 18:00 UTC la veille et 18:00 UTC le jour donné.

2 Température maximale relevée entre 06:00 UTC le jour donné et 06:00 UTC le lendemain.

3 Vent moyen de la journée basé sur les relevés horaires.

4 Ensoleillement en heures relevé entre 06:00 UTC la veille et 06:00 UTC le jour donné.

5 Précipitations totales tombées entre 06:00 UTC la jour donné et 06:00 UTC le lendemain.

Graphiques horaires